createdAt,value
2023-04-09T00:01:38.243Z,20.35
2023-04-09T00:04:05.449Z,20.38
2023-04-09T00:06:32.286Z,17.25
2023-04-09T00:08:59.105Z,15.00
2023-04-09T00:11:28.395Z,16.08
2023-04-09T00:13:55.197Z,15.45
2023-04-09T00:16:22.043Z,18.35
2023-04-09T00:18:49.004Z,21.98
2023-04-09T00:21:16.407Z,22.95
2023-04-09T00:23:43.995Z,21.00
2023-04-09T00:26:10.940Z,21.77
2023-04-09T00:28:37.737Z,21.50
2023-04-09T00:31:04.606Z,18.75
2023-04-09T00:33:31.528Z,19.27
2023-04-09T00:35:58.370Z,20.65
2023-04-09T00:38:25.256Z,19.95
2023-04-09T00:40:52.195Z,21.52
2023-04-09T00:43:18.989Z,26.67
2023-04-09T00:45:46.030Z,37.97
2023-04-09T00:48:13.951Z,35.22
2023-04-09T00:50:42.145Z,42.78
2023-04-09T00:53:09.339Z,25.85
2023-04-09T00:55:36.646Z,23.27
2023-04-09T00:58:03.558Z,22.90
2023-04-09T01:00:30.328Z,22.92
2023-04-09T01:02:59.100Z,22.42
2023-04-09T01:05:53.716Z,23.92
2023-04-09T01:08:49.236Z,22.92
2023-04-09T01:11:45.566Z,19.85
2023-04-09T01:14:25.646Z,20.17
2023-04-09T01:17:07.841Z,19.70
2023-04-09T01:19:46.334Z,19.42
2023-04-09T01:22:59.663Z,19.52
2023-04-09T01:26:11.219Z,19.50
2023-04-09T01:28:43.895Z,20.33
2023-04-09T01:31:18.057Z,23.60
2023-04-09T01:33:45.772Z,19.75
2023-04-09T01:36:14.062Z,20.00
2023-04-09T01:38:43.109Z,21.83
2023-04-09T01:41:18.508Z,20.90
2023-04-09T01:43:46.545Z,22.70
2023-04-09T01:46:14.825Z,20.48
2023-04-09T01:48:42.865Z,26.02
2023-04-09T01:51:10.082Z,22.30
2023-04-09T01:53:37.222Z,22.67
2023-04-09T01:56:04.416Z,24.30
2023-04-09T01:58:34.055Z,25.02
2023-04-09T02:01:21.021Z,24.30
2023-04-09T02:03:56.380Z,27.33
2023-04-09T02:06:41.371Z,22.75
2023-04-09T02:09:09.826Z,21.33
2023-04-09T02:11:43.000Z,23.88
2023-04-09T02:14:11.121Z,22.40
2023-04-09T02:16:39.342Z,25.35
2023-04-09T02:19:06.230Z,22.90
2023-04-09T02:21:33.138Z,20.60
2023-04-09T02:23:59.890Z,22.17
2023-04-09T02:26:26.744Z,28.02
2023-04-09T02:28:53.789Z,31.60
2023-04-09T02:31:20.929Z,26.40
2023-04-09T02:33:47.853Z,31.40
2023-04-09T02:36:14.720Z,31.20
2023-04-09T02:38:42.416Z,29.90
2023-04-09T02:41:09.768Z,32.20
2023-04-09T02:43:37.111Z,33.35
2023-04-09T02:46:04.188Z,37.88
2023-04-09T02:48:31.013Z,38.80
2023-04-09T02:50:57.916Z,37.13
2023-04-09T02:53:25.357Z,37.45
2023-04-09T02:55:52.125Z,39.80
2023-04-09T02:58:18.906Z,38.10
2023-04-09T03:00:45.780Z,40.67
2023-04-09T03:03:12.815Z,39.25
2023-04-09T03:05:39.879Z,35.75
2023-04-09T03:08:06.806Z,35.30
2023-04-09T03:10:33.628Z,39.13
2023-04-09T03:13:00.424Z,37.38
2023-04-09T03:15:27.260Z,36.97
2023-04-09T03:17:54.135Z,33.20
2023-04-09T03:20:20.962Z,39.88
2023-04-09T03:22:47.859Z,44.70
2023-04-09T03:25:14.889Z,39.25
2023-04-09T03:27:41.696Z,41.63
2023-04-09T03:30:09.157Z,38.58
2023-04-09T03:32:35.951Z,38.72
2023-04-09T03:35:02.791Z,42.22
2023-04-09T03:37:29.585Z,38.53
2023-04-09T03:39:56.355Z,35.60
2023-04-09T03:42:23.174Z,42.63
2023-04-09T03:44:49.989Z,42.78
2023-04-09T03:47:16.739Z,44.72
2023-04-09T03:49:43.523Z,46.17
2023-04-09T03:52:10.363Z,41.92
2023-04-09T03:54:37.175Z,52.95
2023-04-09T03:57:04.503Z,46.10
2023-04-09T03:59:50.129Z,47.83
2023-04-09T04:02:16.998Z,52.85
2023-04-09T04:04:43.842Z,48.42
2023-04-09T04:07:10.698Z,48.03
2023-04-09T04:09:49.679Z,50.03
2023-04-09T04:12:19.603Z,47.55
2023-04-09T04:14:46.362Z,48.33
2023-04-09T04:17:13.188Z,51.28
2023-04-09T04:19:40.098Z,53.45
2023-04-09T04:22:06.947Z,51.38
2023-04-09T04:24:33.752Z,56.28
2023-04-09T04:27:00.703Z,48.80
2023-04-09T04:29:27.940Z,49.90
2023-04-09T04:31:54.900Z,49.47
2023-04-09T04:34:21.714Z,46.83
2023-04-09T04:36:48.519Z,44.65
2023-04-09T04:39:15.500Z,42.05
2023-04-09T04:41:42.252Z,46.80
2023-04-09T04:44:09.001Z,52.55
2023-04-09T04:46:35.909Z,46.03
2023-04-09T04:49:02.808Z,48.78
2023-04-09T04:51:32.228Z,47.05
2023-04-09T04:53:59.017Z,49.22
2023-04-09T04:56:26.166Z,48.78
2023-04-09T04:58:53.077Z,57.13
2023-04-09T05:01:20.274Z,49.35
2023-04-09T05:03:47.321Z,50.90
2023-04-09T05:06:14.162Z,53.67
2023-04-09T05:08:41.474Z,51.05
2023-04-09T05:11:12.870Z,49.83
2023-04-09T05:13:39.667Z,53.10
2023-04-09T05:16:07.197Z,46.92
2023-04-09T05:18:33.983Z,49.47
2023-04-09T05:21:00.752Z,52.05
2023-04-09T05:23:27.547Z,48.95
2023-04-09T05:25:54.403Z,47.92
2023-04-09T05:28:21.281Z,50.22
2023-04-09T05:30:48.446Z,55.50
2023-04-09T05:33:15.405Z,49.97
2023-04-09T05:35:42.284Z,52.78
2023-04-09T05:38:09.086Z,50.05
2023-04-09T05:40:35.851Z,57.63
2023-04-09T05:43:02.710Z,51.25
2023-04-09T05:45:29.460Z,49.97
2023-04-09T05:47:56.708Z,50.78
2023-04-09T05:50:23.687Z,52.45
2023-04-09T05:52:50.789Z,50.92
2023-04-09T05:55:17.683Z,51.03
2023-04-09T05:57:45.455Z,49.75
2023-04-09T06:00:13.451Z,51.05
2023-04-09T06:02:40.668Z,51.00
2023-04-09T06:05:08.178Z,50.08
2023-04-09T06:07:35.037Z,47.75
2023-04-09T06:10:02.524Z,48.42
2023-04-09T06:12:29.266Z,55.00
2023-04-09T06:14:56.074Z,54.95
2023-04-09T06:17:22.987Z,51.33
2023-04-09T06:19:49.818Z,46.95
2023-04-09T06:22:16.607Z,48.30
2023-04-09T06:24:43.454Z,47.97
2023-04-09T06:27:10.454Z,52.95
2023-04-09T06:29:37.231Z,49.47
2023-04-09T06:32:04.410Z,52.15
2023-04-09T06:34:31.213Z,52.00
2023-04-09T06:36:57.981Z,49.05
2023-04-09T06:39:24.775Z,52.53
2023-04-09T06:41:51.604Z,54.17
2023-04-09T06:44:19.872Z,50.85
2023-04-09T06:46:46.687Z,51.78
2023-04-09T06:49:13.478Z,55.92
2023-04-09T06:51:40.334Z,53.38
2023-04-09T06:54:07.170Z,47.28
2023-04-09T06:56:34.737Z,50.17
2023-04-09T06:59:01.537Z,49.22
2023-04-09T07:01:28.463Z,53.28
2023-04-09T07:03:55.494Z,54.25
2023-04-09T07:06:22.640Z,53.15
2023-04-09T07:08:49.433Z,48.80
2023-04-09T07:11:17.251Z,53.25
2023-04-09T07:13:44.135Z,51.83
2023-04-09T07:16:10.968Z,51.63
2023-04-09T07:18:37.882Z,53.15
2023-04-09T07:21:04.865Z,50.03
2023-04-09T07:23:36.269Z,50.72
2023-04-09T07:26:05.704Z,44.58
2023-04-09T07:28:32.881Z,56.95
2023-04-09T07:31:04.443Z,53.35
2023-04-09T07:33:31.380Z,55.38
2023-04-09T07:35:58.278Z,51.78
2023-04-09T07:38:25.088Z,49.42
2023-04-09T07:40:51.947Z,49.22
2023-04-09T07:43:19.788Z,52.92
2023-04-09T07:45:53.777Z,55.45
2023-04-09T07:48:21.804Z,52.75
2023-04-09T07:50:48.589Z,49.42
2023-04-09T07:53:15.511Z,51.45
2023-04-09T07:55:42.319Z,50.78
2023-04-09T07:58:09.100Z,52.58
2023-04-09T08:00:36.172Z,50.67
2023-04-09T08:03:04.012Z,48.60
2023-04-09T08:05:31.015Z,47.53
2023-04-09T08:07:57.856Z,52.35
2023-04-09T08:10:24.690Z,52.13
2023-04-09T08:12:51.482Z,48.10
2023-04-09T08:15:18.383Z,47.85
2023-04-09T08:17:45.579Z,51.00
2023-04-09T08:20:13.082Z,50.70
2023-04-09T08:22:41.219Z,53.05
2023-04-09T08:25:08.480Z,43.67
2023-04-09T08:27:36.066Z,49.53
2023-04-09T08:30:04.337Z,51.83
2023-04-09T08:32:31.466Z,53.40
2023-04-09T08:34:58.257Z,52.60
2023-04-09T08:37:25.129Z,50.90
2023-04-09T08:39:51.997Z,51.17
2023-04-09T08:42:19.654Z,48.55
2023-04-09T08:44:46.840Z,56.67
2023-04-09T08:47:13.964Z,50.40
2023-04-09T08:49:41.642Z,52.42
2023-04-09T08:52:08.793Z,52.78
2023-04-09T08:54:35.901Z,54.53
2023-04-09T08:57:06.474Z,60.70
2023-04-09T08:59:37.070Z,51.83
2023-04-09T09:02:12.082Z,51.78
2023-04-09T09:04:47.281Z,52.55
2023-04-09T09:07:15.492Z,51.25
2023-04-09T09:09:58.725Z,46.47
2023-04-09T09:15:34.885Z,51.63
2023-04-09T09:18:01.806Z,46.13
2023-04-09T09:20:29.077Z,46.13
2023-04-09T09:22:56.959Z,50.28
2023-04-09T09:25:25.676Z,49.28
2023-04-09T09:27:53.718Z,49.47
2023-04-09T09:30:26.622Z,45.20
2023-04-09T09:35:57.610Z,46.15
2023-04-09T09:38:24.546Z,43.20
2023-04-09T09:40:52.444Z,44.50
2023-04-09T09:43:19.298Z,44.28
2023-04-09T09:45:47.868Z,45.08
2023-04-09T09:48:15.578Z,43.30
2023-04-09T09:50:43.224Z,43.22
2023-04-09T09:53:17.380Z,41.45
2023-04-09T09:55:49.494Z,42.13
2023-04-09T09:58:33.323Z,40.33
2023-04-09T10:01:02.788Z,38.47
2023-04-09T10:03:32.076Z,38.53
2023-04-09T10:06:01.620Z,38.05
2023-04-09T10:08:30.516Z,36.95
2023-04-09T10:10:57.804Z,36.63
2023-04-09T10:13:54.147Z,37.90
2023-04-09T10:16:23.382Z,38.13
2023-04-09T10:18:50.962Z,34.53
2023-04-09T10:21:42.622Z,37.85
2023-04-09T10:24:09.894Z,35.20
2023-04-09T10:26:41.938Z,34.78
2023-04-09T10:29:14.606Z,35.83
2023-04-09T10:31:51.500Z,37.88
2023-04-09T10:34:24.770Z,34.10
2023-04-09T10:37:00.675Z,34.80
2023-04-09T10:39:30.829Z,38.17
2023-04-09T10:42:08.960Z,36.50
2023-04-09T10:44:38.063Z,36.35
2023-04-09T10:47:06.171Z,37.85
2023-04-09T10:49:41.278Z,37.60
2023-04-09T10:52:12.302Z,35.08
2023-04-09T10:54:46.999Z,36.53
2023-04-09T10:57:21.960Z,37.03
2023-04-09T10:59:54.494Z,36.72
2023-04-09T11:02:40.333Z,34.78
2023-04-09T11:05:25.727Z,35.58
2023-04-09T11:07:58.933Z,33.53
2023-04-09T11:10:25.742Z,32.78
2023-04-09T11:12:53.755Z,35.88
2023-04-09T11:15:21.213Z,38.05
2023-04-09T11:17:49.490Z,34.85
2023-04-09T11:20:21.389Z,33.25
2023-04-09T11:22:51.606Z,31.90
2023-04-09T11:25:30.784Z,33.00
2023-04-09T11:27:58.332Z,32.13
2023-04-09T11:30:25.393Z,32.63
2023-04-09T11:32:53.010Z,32.97
2023-04-09T11:35:22.324Z,37.08
2023-04-09T11:37:52.530Z,34.38
2023-04-09T11:40:26.975Z,34.08
2023-04-09T11:42:56.222Z,33.17
2023-04-09T11:45:28.553Z,32.80
2023-04-09T11:47:56.514Z,33.00
2023-04-09T11:50:25.262Z,32.47
2023-04-09T11:52:52.994Z,30.13
2023-04-09T11:55:29.438Z,36.55
2023-04-09T11:58:01.854Z,31.15
2023-04-09T12:00:29.792Z,30.75
2023-04-09T12:03:04.374Z,34.30
2023-04-09T12:05:35.370Z,35.25
2023-04-09T12:08:05.822Z,29.52
2023-04-09T12:10:36.905Z,33.45
2023-04-09T12:13:10.619Z,30.38
2023-04-09T12:15:41.376Z,33.20
2023-04-09T12:18:13.986Z,33.22
2023-04-09T12:20:44.558Z,29.58
2023-04-09T12:23:13.254Z,30.85
2023-04-09T12:25:43.808Z,31.05
2023-04-09T12:28:16.952Z,33.28
2023-04-09T12:30:44.782Z,27.92
2023-04-09T12:33:11.802Z,29.25
2023-04-09T12:35:39.157Z,29.25
2023-04-09T12:38:06.193Z,28.75
2023-04-09T12:40:33.514Z,27.15
2023-04-09T12:43:00.359Z,30.30
2023-04-09T12:45:28.057Z,29.67
2023-04-09T12:47:55.036Z,26.63
2023-04-09T12:50:22.364Z,29.67
2023-04-09T12:52:49.279Z,28.80
2023-04-09T12:55:16.991Z,28.00
2023-04-09T12:57:46.944Z,27.55
2023-04-09T13:00:14.719Z,27.05
2023-04-09T13:02:41.988Z,27.88
2023-04-09T13:05:09.087Z,28.70
2023-04-09T13:07:36.134Z,27.00
2023-04-09T13:10:03.411Z,25.52
2023-04-09T13:12:30.557Z,26.52
2023-04-09T13:14:59.204Z,27.20
2023-04-09T13:17:26.365Z,25.38
2023-04-09T13:19:53.606Z,27.38
2023-04-09T13:22:20.603Z,27.70
2023-04-09T13:24:47.446Z,28.55
2023-04-09T13:27:16.369Z,29.15
2023-04-09T13:29:43.274Z,29.20
2023-04-09T13:32:11.196Z,31.02
2023-04-09T13:34:39.606Z,27.38
2023-04-09T13:37:07.167Z,29.15
2023-04-09T13:39:34.124Z,25.05
2023-04-09T13:42:07.244Z,25.52
2023-04-09T13:44:36.974Z,24.27
2023-04-09T13:47:03.754Z,25.38
2023-04-09T13:49:30.877Z,24.33
2023-04-09T13:51:58.241Z,24.05
2023-04-09T13:54:25.050Z,24.38
2023-04-09T13:56:51.914Z,23.27
2023-04-09T13:59:18.838Z,23.98
2023-04-09T14:01:46.115Z,24.27
2023-04-09T14:04:13.186Z,24.05
2023-04-09T14:06:40.398Z,21.85
2023-04-09T14:09:07.249Z,24.75
2023-04-09T14:11:34.163Z,24.02
2023-04-09T14:14:00.969Z,23.27
2023-04-09T14:16:30.239Z,22.55
2023-04-09T14:18:57.987Z,25.55
2023-04-09T14:21:26.561Z,26.27
2023-04-09T14:23:53.373Z,25.20
2023-04-09T14:26:22.134Z,23.67
2023-04-09T14:28:51.885Z,21.60
2023-04-09T14:31:21.465Z,19.20
2023-04-09T14:33:49.157Z,20.83
2023-04-09T14:36:16.686Z,20.60
2023-04-09T14:38:43.631Z,19.33
2023-04-09T14:41:10.507Z,19.48
2023-04-09T14:43:37.398Z,22.23
2023-04-09T14:46:06.271Z,23.02
2023-04-09T14:48:33.116Z,20.85
2023-04-09T14:50:59.881Z,21.58
2023-04-09T14:53:26.750Z,24.20
2023-04-09T14:55:53.647Z,19.90
2023-04-09T14:58:20.769Z,19.77
2023-04-09T15:00:47.716Z,20.40
2023-04-09T15:03:14.764Z,20.40
2023-04-09T15:05:41.827Z,17.83
2023-04-09T15:08:08.618Z,18.83
2023-04-09T15:10:36.985Z,18.35
2023-04-09T15:13:03.821Z,16.92
2023-04-09T15:15:31.095Z,18.60
2023-04-09T15:17:57.997Z,42.25
2023-04-09T15:20:24.792Z,38.50
2023-04-09T15:22:51.571Z,25.75
2023-04-09T15:25:18.506Z,21.10
2023-04-09T15:27:46.825Z,19.35
2023-04-09T15:30:13.723Z,19.35
2023-04-09T15:32:40.795Z,22.42
2023-04-09T15:35:08.249Z,24.33
2023-04-09T15:37:35.306Z,31.15
2023-04-09T15:40:02.157Z,25.30
2023-04-09T15:42:29.017Z,21.58
2023-04-09T15:44:55.901Z,30.17
2023-04-09T15:47:22.764Z,25.35
2023-04-09T15:49:49.783Z,24.95
2023-04-09T15:52:19.319Z,27.33
2023-04-09T15:54:46.139Z,27.85
2023-04-09T15:57:14.349Z,26.00
2023-04-09T15:59:41.271Z,24.33
2023-04-09T16:02:08.209Z,23.95
2023-04-09T16:04:35.333Z,22.88
2023-04-09T16:07:04.055Z,20.88
2023-04-09T16:09:30.860Z,20.38
2023-04-09T16:11:57.627Z,20.60
2023-04-09T16:14:24.408Z,23.17
2023-04-09T16:16:51.292Z,20.67
2023-04-09T16:19:18.168Z,18.40
2023-04-09T16:21:45.567Z,21.25
2023-04-09T16:24:13.164Z,21.75
2023-04-09T16:26:42.203Z,20.70
2023-04-09T16:29:09.295Z,22.45
2023-04-09T16:31:38.164Z,19.75
2023-04-09T16:34:05.635Z,23.20
2023-04-09T16:36:33.620Z,26.95
2023-04-09T16:39:00.645Z,22.33
2023-04-09T16:41:27.436Z,23.58
2023-04-09T16:43:54.438Z,23.35
2023-04-09T16:46:21.276Z,25.95
2023-04-09T16:48:48.129Z,25.63
2023-04-09T16:51:15.144Z,51.42
2023-04-09T16:53:42.081Z,34.45
2023-04-09T16:56:09.296Z,81.78
2023-04-09T16:58:36.198Z,33.00
2023-04-09T17:01:03.654Z,24.85
2023-04-09T17:03:30.873Z,27.05
2023-04-09T17:05:57.818Z,30.63
2023-04-09T17:08:24.705Z,36.80
2023-04-09T17:10:52.210Z,28.25
2023-04-09T17:13:19.204Z,26.52
2023-04-09T17:15:46.023Z,30.90
2023-04-09T17:18:12.978Z,32.50
2023-04-09T17:20:39.824Z,27.50
2023-04-09T17:23:06.703Z,33.67
2023-04-09T17:25:33.707Z,38.00
2023-04-09T17:28:01.589Z,32.03
2023-04-09T17:30:28.359Z,32.70
2023-04-09T17:32:55.332Z,26.40
2023-04-09T17:35:22.394Z,29.40
2023-04-09T17:37:49.230Z,32.97
2023-04-09T17:40:18.543Z,32.45
2023-04-09T17:42:46.122Z,25.05
2023-04-09T17:45:13.103Z,28.90
2023-04-09T17:47:40.669Z,29.42
2023-04-09T17:50:08.775Z,30.38
2023-04-09T17:52:37.306Z,29.33
2023-04-09T17:55:12.347Z,29.42
2023-04-09T17:57:40.086Z,28.95
2023-04-09T18:00:08.190Z,26.10
2023-04-09T18:02:36.014Z,25.42
2023-04-09T18:05:07.228Z,25.42
2023-04-09T18:07:34.512Z,27.05
2023-04-09T18:10:03.336Z,30.38
2023-04-09T18:12:30.696Z,26.38
2023-04-09T18:14:57.497Z,28.15
2023-04-09T18:17:26.229Z,31.58
2023-04-09T18:19:58.269Z,29.23
2023-04-09T18:22:26.803Z,26.67
2023-04-09T18:24:54.112Z,27.90
2023-04-09T18:27:21.664Z,24.30
2023-04-09T18:29:51.762Z,26.65
2023-04-09T18:32:19.610Z,25.65
2023-04-09T18:34:47.631Z,27.35
2023-04-09T18:37:15.350Z,25.38
2023-04-09T18:39:42.222Z,24.65
2023-04-09T18:42:09.299Z,26.08
2023-04-09T18:44:37.598Z,27.02
2023-04-09T18:47:06.016Z,31.67
2023-04-09T18:49:33.556Z,29.83
2023-04-09T18:52:00.900Z,29.95
2023-04-09T18:54:28.061Z,30.33
2023-04-09T18:56:54.912Z,27.92
2023-04-09T18:59:21.930Z,82.85
2023-04-09T19:01:48.864Z,58.95
2023-04-09T19:04:15.967Z,33.75
2023-04-09T19:06:46.228Z,30.27
2023-04-09T19:09:13.192Z,28.48
2023-04-09T19:11:40.143Z,27.77
2023-04-09T19:14:06.957Z,26.45
2023-04-09T19:16:33.829Z,27.67
2023-04-09T19:19:00.619Z,27.65
2023-04-09T19:21:28.781Z,24.90
2023-04-09T19:23:56.171Z,26.00
2023-04-09T19:26:23.016Z,25.02
2023-04-09T19:28:49.842Z,24.23
2023-04-09T19:31:17.033Z,24.30
2023-04-09T19:33:43.913Z,27.15
2023-04-09T19:36:10.757Z,28.50
2023-04-09T19:38:37.521Z,30.35
2023-04-09T19:41:04.717Z,27.80
2023-04-09T19:43:31.508Z,26.20
2023-04-09T19:45:58.285Z,30.35
2023-04-09T19:48:25.356Z,32.50
2023-04-09T19:50:52.555Z,29.67
2023-04-09T19:53:19.515Z,29.52
2023-04-09T19:55:46.339Z,30.45
2023-04-09T19:58:13.092Z,32.60
2023-04-09T20:00:40.236Z,26.23
2023-04-09T20:03:07.666Z,25.77
2023-04-09T20:05:34.724Z,26.75
2023-04-09T20:08:01.558Z,29.35
2023-04-09T20:10:28.360Z,25.30
2023-04-09T20:12:55.186Z,28.17
2023-04-09T20:15:22.165Z,26.08
2023-04-09T20:17:50.798Z,27.95
2023-04-09T20:20:19.758Z,25.92
2023-04-09T20:22:55.616Z,26.42
2023-04-09T20:25:24.146Z,25.70
2023-04-09T20:27:54.257Z,26.05
2023-04-09T20:30:21.372Z,26.10
2023-04-09T20:32:49.023Z,24.30
2023-04-09T20:35:16.379Z,28.60
2023-04-09T20:37:43.287Z,31.65
2023-04-09T20:40:12.047Z,27.77
2023-04-09T20:42:41.986Z,28.48
2023-04-09T20:45:09.640Z,32.63
2023-04-09T20:47:36.749Z,28.98
2023-04-09T20:50:03.797Z,29.45
2023-04-09T20:52:30.736Z,28.02
2023-04-09T20:54:57.849Z,29.23
2023-04-09T20:57:24.818Z,30.40
2023-04-09T20:59:52.992Z,26.90
2023-04-09T21:02:21.251Z,25.52
2023-04-09T21:04:48.140Z,26.55
2023-04-09T21:07:15.502Z,26.55
2023-04-09T21:09:42.496Z,30.25
2023-04-09T21:12:09.322Z,25.15
2023-04-09T21:14:36.133Z,24.63
2023-04-09T21:17:03.030Z,21.67
2023-04-09T21:19:29.884Z,25.55
2023-04-09T21:21:56.717Z,22.27
2023-04-09T21:24:23.572Z,26.38
2023-04-09T21:26:52.307Z,25.35
2023-04-09T21:29:21.131Z,26.63
2023-04-09T21:31:49.280Z,27.42
2023-04-09T21:34:16.507Z,28.38
2023-04-09T21:36:45.010Z,27.45
2023-04-09T21:39:12.432Z,28.65
2023-04-09T21:41:39.586Z,28.77
2023-04-09T21:44:08.196Z,27.85
2023-04-09T21:46:40.732Z,26.83
2023-04-09T21:49:08.059Z,26.27
2023-04-09T21:51:34.928Z,29.13
2023-04-09T21:54:08.244Z,27.33
2023-04-09T21:56:36.529Z,27.50
2023-04-09T21:59:04.105Z,23.83
2023-04-09T22:01:31.667Z,25.70
2023-04-09T22:03:59.785Z,24.33
2023-04-09T22:06:28.622Z,26.65
2023-04-09T22:08:57.840Z,28.65
2023-04-09T22:11:27.542Z,29.88
2023-04-09T22:13:56.975Z,26.10
2023-04-09T22:16:25.074Z,25.30
2023-04-09T22:18:53.973Z,27.70
2023-04-09T22:21:21.424Z,24.83
2023-04-09T22:23:48.314Z,22.90
2023-04-09T22:26:15.069Z,25.15
2023-04-09T22:28:41.842Z,23.85
2023-04-09T22:31:08.716Z,25.63
2023-04-09T22:33:35.572Z,22.63
2023-04-09T22:36:02.377Z,25.60
2023-04-09T22:38:29.322Z,24.55
2023-04-09T22:40:56.160Z,23.38
2023-04-09T22:43:23.212Z,23.23
2023-04-09T22:45:54.658Z,22.83
2023-04-09T22:48:22.949Z,27.08
2023-04-09T22:50:50.866Z,24.90
2023-04-09T22:53:18.792Z,24.35
2023-04-09T22:55:51.239Z,26.98
2023-04-09T22:58:19.063Z,28.50
2023-04-09T23:00:47.200Z,24.05
2023-04-09T23:03:14.497Z,25.95
2023-04-09T23:05:41.866Z,22.50
2023-04-09T23:08:09.423Z,22.63
2023-04-09T23:10:36.503Z,21.23
2023-04-09T23:13:03.504Z,25.48
2023-04-09T23:15:30.418Z,23.95
2023-04-09T23:17:57.634Z,21.55
2023-04-09T23:20:26.395Z,24.77
2023-04-09T23:27:52.700Z,29.02
2023-04-09T23:30:21.573Z,33.80
2023-04-09T23:32:48.980Z,26.02
2023-04-09T23:35:16.595Z,25.42
2023-04-09T23:37:43.519Z,29.50
2023-04-09T23:40:11.301Z,24.67
2023-04-09T23:42:38.516Z,27.70
2023-04-09T23:45:06.709Z,29.33
2023-04-09T23:47:36.407Z,28.42
2023-04-09T23:50:05.971Z,26.45
2023-04-09T23:52:38.342Z,32.75
2023-04-09T23:55:09.532Z,23.95
2023-04-09T23:57:36.462Z,31.52
